Mary J — WDG4801 — position and weather

sailwx.info

Track history (hours):
 
Tides and Currents Weather Stations Pressure Air Temp Water Temp Dewpoint Dewpoint Depression Visibility Wind Speed Wind Dir Waves Ship Positions

Mary J

Owner: F/V Mary J, LLC, Manahawkin, NJ. More information available from US FCC via Universal Licensing System and Coast Guard Vessel Documentation Center.

Last reported at 2017-Sep-18 05:03 UTC. Time now 2017-Sep-19 20:31 UTC.
Position N 39°22' W 074°25'.

Type: Other ship. MMSI: 367540250.

Date/timePositionNaut miles runAvg speedWind from/ knotsBaromVisibWave heightAir tempDewpointWater temp
2017-Sep-18 05:03N 39°22' W 074°25'0 0.0
2017-Sep-18 04:42N 39°22' W 074°25'0 0.0
2017-Sep-18 04:03N 39°22' W 074°25'0 0.0
2017-Sep-18 04:00N 39°22' W 074°25'0 0.0
2017-Sep-18 03:27N 39°22' W 074°25'0 0.0
2017-Sep-18 03:00N 39°22' W 074°25'0 0.0
2017-Sep-18 02:30N 39°22' W 074°25'0 0.0
2017-Sep-18 01:54N 39°22' W 074°25'0 0.0
2017-Sep-18 01:27N 39°22' W 074°25'0 0.0
2017-Sep-17 09:09N 39°22' W 074°25'0 0.0
2017-Sep-17 03:21N 39°22' W 074°25'0 0.0
2017-Sep-17 02:57N 39°22' W 074°25'0 0.0
2017-Sep-16 13:21N 39°22' W 074°25'0 0.0
2017-Sep-16 12:54N 39°22' W 074°25'0 0.0
2017-Sep-16 12:18N 39°22' W 074°25'0 0.0
2017-Sep-16 11:00N 39°22' W 074°25'0 0.0
2017-Sep-16 10:24N 39°22' W 074°25'0 0.0
2017-Sep-16 10:00N 39°22' W 074°25'0 0.0
2017-Sep-16 09:30N 39°22' W 074°25'0 0.0
2017-Sep-16 08:42N 39°22' W 074°25'0 0.0
2017-Sep-16 08:30N 39°22' W 074°25'0 0.0
2017-Sep-16 07:27N 39°22' W 074°25'0 0.0
2017-Sep-16 07:00N 39°22' W 074°25'0 0.0
2017-Sep-16 06:15N 39°22' W 074°25'0 0.0
2017-Sep-16 06:00N 39°22' W 074°25'0 0.0
2017-Sep-16 05:30N 39°22' W 074°25'0 0.0
2017-Sep-16 05:00N 39°22' W 074°25'0 0.0
2017-Sep-16 04:27N 39°22' W 074°25'0 0.0
2017-Sep-16 03:54N 39°22' W 074°25'18 0.6
2017-Sep-14 21:45N 39°21' W 074°02'0 0.7
2017-Sep-14 21:21N 39°21' W 074°02'0 0.1
2017-Sep-14 20:07N 39°21' W 074°02'1 1.2
2017-Sep-14 19:40N 39°20' W 074°02'1 0.1
2017-Sep-14 13:06N 39°20' W 074°02'2 0.7
2017-Sep-14 10:43N 39°21' W 074°03'1 2.9
2017-Sep-14 10:30N 39°22' W 074°03'0 0.2
2017-Sep-14 10:00N 39°22' W 074°03'1 2.9
2017-Sep-14 09:30N 39°21' W 074°02'0 0.9
2017-Sep-14 09:00N 39°21' W 074°02'1 2.9
2017-Sep-14 08:30N 39°23' W 074°03'1 2.6
2017-Sep-14 08:00N 39°21' W 074°02'1 1.9
2017-Sep-14 07:30N 39°20' W 074°02'2 3.1
2017-Sep-14 07:00N 39°22' W 074°02'0 0.3
2017-Sep-14 06:30N 39°22' W 074°02'1 3.0
2017-Sep-14 06:00N 39°20' W 074°02'1 2.5
2017-Sep-14 05:26N 39°22' W 074°02'1 2.9
2017-Sep-14 05:00N 39°20' W 074°02'2 2.4
2017-Sep-14 04:09N 39°22' W 074°03'17 1.2
2017-Sep-13 13:23N 39°22' W 074°25'0 0.0
2017-Sep-13 12:56N 39°22' W 074°25'0 0.0
2017-Sep-13 12:29N 39°22' W 074°25'0 0.0
2017-Sep-13 11:59N 39°22' W 074°25'0 0.0
2017-Sep-13 11:29N 39°22' W 074°25'0 0.0
2017-Sep-13 10:56N 39°22' W 074°25'0 0.0
2017-Sep-13 09:47N 39°22' W 074°25'0 0.0
2017-Sep-13 09:29N 39°22' W 074°25'0 0.0
2017-Sep-13 08:59N 39°22' W 074°25'0 0.0
2017-Sep-13 08:24N 39°22' W 074°25'0 0.0
2017-Sep-13 07:59N 39°22' W 074°25'0 0.0
2017-Sep-13 07:23N 39°22' W 074°25'0 0.0
2017-Sep-13 06:59N 39°22' W 074°25'0 0.0
2017-Sep-13 06:29N 39°22' W 074°25'0 0.0
2017-Sep-13 05:59N 39°22' W 074°25'0 0.0
2017-Sep-13 05:29N 39°22' W 074°25'0 0.0
2017-Sep-13 04:59N 39°22' W 074°25'0 0.0
2017-Sep-13 04:29N 39°22' W 074°25'0 0.1
2017-Sep-13 03:56N 39°22' W 074°25'0 0.0
2017-Sep-13 03:29N 39°22' W 074°25'0 0.0
2017-Sep-13 03:00N 39°22' W 074°25'2 4.2
2017-Sep-13 02:30N 39°21' W 074°24'4 7.8
2017-Sep-13 02:00N 39°21' W 074°19'5 9.0
2017-Sep-13 01:29N 39°22' W 074°13'4 9.0
2017-Sep-13 01:00N 39°22' W 074°07'5 8.8
2017-Sep-13 00:26N 39°23' W 074°01'4 8.3
2017-Sep-12 23:59N 39°23' W 073°56'4 7.6
2017-Sep-12 23:28N 39°24' W 073°51'1 1.1
2017-Sep-12 22:49N 39°25' W 073°51'1 0.1
2017-Sep-12 15:09N 39°24' W 073°52'0 0.9
2017-Sep-12 14:49N 39°24' W 073°52'1 3.2
2017-Sep-12 14:26N 39°25' W 073°52'0 0.1
2017-Sep-12 13:59N 39°25' W 073°52'5 4.4
2017-Sep-12 12:46N 39°21' W 073°48'4 0.8
2017-Sep-12 08:26N 39°23' W 073°51'26 1.3
2017-Sep-11 12:33N 39°22' W 074°25'0 0.0
2017-Sep-11 12:27N 39°22' W 074°25'0 0.0
2017-Sep-11 10:57N 39°22' W 074°25'0 0.0
2017-Sep-11 10:30N 39°22' W 074°25'  
Track history (hours):
 
Tides and Currents Weather Stations Pressure Air Temp Water Temp Dewpoint Dewpoint Depression Visibility Wind Speed Wind Dir Waves Ship Positions

Mary J

Owner: F/V Mary J, LLC, Manahawkin, NJ. More information available from US FCC via Universal Licensing System and Coast Guard Vessel Documentation Center.

Last reported at 2017-Sep-18 05:03 UTC. Time now 2017-Sep-19 20:31 UTC.
Position N 39°22' W 074°25'.

Type: Other ship. MMSI: 367540250.

Date/timePositionNaut miles runAvg speedWind from/ knotsBaromVisibWave heightAir tempDewpointWater temp
2017-Sep-18 05:03N 39°22' W 074°25'0 0.0
2017-Sep-18 04:42N 39°22' W 074°25'0 0.0
2017-Sep-18 04:03N 39°22' W 074°25'0 0.0
2017-Sep-18 04:00N 39°22' W 074°25'0 0.0
2017-Sep-18 03:27N 39°22' W 074°25'0 0.0
2017-Sep-18 03:00N 39°22' W 074°25'0 0.0
2017-Sep-18 02:30N 39°22' W 074°25'0 0.0
2017-Sep-18 01:54N 39°22' W 074°25'0 0.0
2017-Sep-18 01:27N 39°22' W 074°25'0 0.0
2017-Sep-17 09:09N 39°22' W 074°25'0 0.0
2017-Sep-17 03:21N 39°22' W 074°25'0 0.0
2017-Sep-17 02:57N 39°22' W 074°25'0 0.0
2017-Sep-16 13:21N 39°22' W 074°25'0 0.0
2017-Sep-16 12:54N 39°22' W 074°25'0 0.0
2017-Sep-16 12:18N 39°22' W 074°25'0 0.0
2017-Sep-16 11:00N 39°22' W 074°25'0 0.0
2017-Sep-16 10:24N 39°22' W 074°25'0 0.0
2017-Sep-16 10:00N 39°22' W 074°25'0 0.0
2017-Sep-16 09:30N 39°22' W 074°25'0 0.0
2017-Sep-16 08:42N 39°22' W 074°25'0 0.0
2017-Sep-16 08:30N 39°22' W 074°25'0 0.0
2017-Sep-16 07:27N 39°22' W 074°25'0 0.0
2017-Sep-16 07:00N 39°22' W 074°25'0 0.0
2017-Sep-16 06:15N 39°22' W 074°25'0 0.0
2017-Sep-16 06:00N 39°22' W 074°25'0 0.0
2017-Sep-16 05:30N 39°22' W 074°25'0 0.0
2017-Sep-16 05:00N 39°22' W 074°25'0 0.0
2017-Sep-16 04:27N 39°22' W 074°25'0 0.0
2017-Sep-16 03:54N 39°22' W 074°25'18 0.6
2017-Sep-14 21:45N 39°21' W 074°02'0 0.7
2017-Sep-14 21:21N 39°21' W 074°02'0 0.1
2017-Sep-14 20:07N 39°21' W 074°02'1 1.2
2017-Sep-14 19:40N 39°20' W 074°02'1 0.1
2017-Sep-14 13:06N 39°20' W 074°02'2 0.7
2017-Sep-14 10:43N 39°21' W 074°03'1 2.9
2017-Sep-14 10:30N 39°22' W 074°03'0 0.2
2017-Sep-14 10:00N 39°22' W 074°03'1 2.9
2017-Sep-14 09:30N 39°21' W 074°02'0 0.9
2017-Sep-14 09:00N 39°21' W 074°02'1 2.9
2017-Sep-14 08:30N 39°23' W 074°03'1 2.6
2017-Sep-14 08:00N 39°21' W 074°02'1 1.9
2017-Sep-14 07:30N 39°20' W 074°02'2 3.1
2017-Sep-14 07:00N 39°22' W 074°02'0 0.3
2017-Sep-14 06:30N 39°22' W 074°02'1 3.0
2017-Sep-14 06:00N 39°20' W 074°02'1 2.5
2017-Sep-14 05:26N 39°22' W 074°02'1 2.9
2017-Sep-14 05:00N 39°20' W 074°02'2 2.4
2017-Sep-14 04:09N 39°22' W 074°03'17 1.2
2017-Sep-13 13:23N 39°22' W 074°25'0 0.0
2017-Sep-13 12:56N 39°22' W 074°25'0 0.0
2017-Sep-13 12:29N 39°22' W 074°25'0 0.0
2017-Sep-13 11:59N 39°22' W 074°25'0 0.0
2017-Sep-13 11:29N 39°22' W 074°25'0 0.0
2017-Sep-13 10:56N 39°22' W 074°25'0 0.0
2017-Sep-13 09:47N 39°22' W 074°25'0 0.0
2017-Sep-13 09:29N 39°22' W 074°25'0 0.0
2017-Sep-13 08:59N 39°22' W 074°25'0 0.0
2017-Sep-13 08:24N 39°22' W 074°25'0 0.0
2017-Sep-13 07:59N 39°22' W 074°25'0 0.0
2017-Sep-13 07:23N 39°22' W 074°25'0 0.0
2017-Sep-13 06:59N 39°22' W 074°25'0 0.0
2017-Sep-13 06:29N 39°22' W 074°25'0 0.0
2017-Sep-13 05:59N 39°22' W 074°25'0 0.0
2017-Sep-13 05:29N 39°22' W 074°25'0 0.0
2017-Sep-13 04:59N 39°22' W 074°25'0 0.0
2017-Sep-13 04:29N 39°22' W 074°25'0 0.1
2017-Sep-13 03:56N 39°22' W 074°25'0 0.0
2017-Sep-13 03:29N 39°22' W 074°25'0 0.0
2017-Sep-13 03:00N 39°22' W 074°25'2 4.2
2017-Sep-13 02:30N 39°21' W 074°24'4 7.8
2017-Sep-13 02:00N 39°21' W 074°19'5 9.0
2017-Sep-13 01:29N 39°22' W 074°13'4 9.0
2017-Sep-13 01:00N 39°22' W 074°07'5 8.8
2017-Sep-13 00:26N 39°23' W 074°01'4 8.3
2017-Sep-12 23:59N 39°23' W 073°56'4 7.6
2017-Sep-12 23:28N 39°24' W 073°51'1 1.1
2017-Sep-12 22:49N 39°25' W 073°51'1 0.1
2017-Sep-12 15:09N 39°24' W 073°52'0 0.9
2017-Sep-12 14:49N 39°24' W 073°52'1 3.2
2017-Sep-12 14:26N 39°25' W 073°52'0 0.1
2017-Sep-12 13:59N 39°25' W 073°52'5 4.4
2017-Sep-12 12:46N 39°21' W 073°48'4 0.8
2017-Sep-12 08:26N 39°23' W 073°51'26 1.3
2017-Sep-11 12:33N 39°22' W 074°25'0 0.0
2017-Sep-11 12:27N 39°22' W 074°25'0 0.0
2017-Sep-11 10:57N 39°22' W 074°25'0 0.0
2017-Sep-11 10:30N 39°22' W 074°25'  

Dump ship's entire track history